Time;durP1;ratioP1;P1;durP2;ratioP2;P2;SDS_P1;SDS_P2;PMS_P1;PMS_P2;Temp;Humidity;BMP_temperature;BMP_pressure;BME280_temperature;BME280_humidity;BME280_pressure;Samples;Min_cycle;Max_cycle;Signal;HPM_P1;HPM_P2
2021/04/27 06:00:56;;;;;;;14.43;10.63;;;;;;;6.30;100.00;97414.00;5106157;27;20408;-76
2021/04/27 06:03:22;;;;;;;20.65;13.05;;;;;;;6.30;99.50;97405.03;5087694;28;20485;-77
2021/04/27 06:05:47;;;;;;;13.82;11.63;;;;;;;6.10;99.62;97422.28;5087397;28;20550;-76
2021/04/27 06:08:12;;;;;;;15.95;12.38;;;;;;;6.13;100.00;97429.03;5071823;28;20029;-76
2021/04/27 06:10:38;;;;;;;;;;;;;;;6.25;100.00;97419.47;5065825;28;20024;-75
2021/04/27 06:13:03;;;;;;;15.05;12.23;;;;;;;6.27;100.00;97421.88;5098774;28;19986;-75
2021/04/27 06:15:28;;;;;;;21.48;15.25;;;;;;;6.32;100.00;97409.09;5087456;28;20032;-76
2021/04/27 06:17:54;;;;;;;17.42;13.32;;;;;;;6.27;100.00;97411.84;5087721;28;20035;-76
2021/04/27 06:20:19;;;;;;;18.42;13.13;;;;;;;6.16;100.00;97421.16;5082206;28;20111;-76
2021/04/27 06:22:45;;;;;;;18.05;12.45;;;;;;;6.36;100.00;97418.28;5086066;28;20035;-76
2021/04/27 06:25:11;;;;;;;16.05;13.57;;;;;;;6.51;100.00;97427.44;5085399;28;20055;-76
2021/04/27 06:27:39;;;;;;;16.83;12.57;;;;;;;6.50;99.87;97429.34;5087062;28;20400;-75
2021/04/27 06:30:06;;;;;;;16.48;13.43;;;;;;;6.54;100.00;97413.31;5103240;28;20456;-76
2021/04/27 06:32:32;;;;;;;16.35;12.52;;;;;;;6.54;100.00;97418.72;5086695;28;20032;-75
2021/04/27 06:34:58;;;;;;;24.80;14.77;;;;;;;6.56;100.00;97422.78;5087486;28;20031;-74
2021/04/27 06:37:23;;;;;;;19.60;14.65;;;;;;;6.51;100.00;97425.56;5088046;28;20472;-75
2021/04/27 06:39:52;;;;;;;18.48;14.48;;;;;;;6.36;100.00;97412.88;5102994;28;20408;-77
2021/04/27 06:42:18;;;;;;;20.02;14.88;;;;;;;6.37;100.00;97417.22;5086911;28;20035;-75
2021/04/27 06:44:44;;;;;;;45.92;25.42;;;;;;;6.37;100.00;97422.66;5088975;28;20020;-76
2021/04/27 06:47:10;;;;;;;22.70;16.20;;;;;;;6.54;100.00;97426.88;5089571;28;20116;-75
2021/04/27 06:49:36;;;;;;;19.02;14.55;;;;;;;6.46;100.00;97411.97;5091951;28;20033;-77
2021/04/27 06:52:04;;;;;;;28.40;14.55;;;;;;;6.46;100.00;97425.56;5089737;28;20058;-75
2021/04/27 06:54:30;;;;;;;18.95;13.95;;;;;;;6.24;100.00;97420.53;5087395;28;20358;-74
2021/04/27 06:56:55;;;;;;;24.38;15.85;;;;;;;6.30;100.00;97424.03;5087115;28;20035;-75
2021/04/27 06:59:25;;;;;;;21.08;14.75;;;;;;;6.40;100.00;97419.38;5086244;28;20374;-74
2021/04/27 07:01:53;;;;;;;20.55;15.88;;;;;;;6.50;100.00;97423.91;5085172;28;20028;-75
2021/04/27 07:04:18;;;;;;;19.92;14.57;;;;;;;6.47;100.00;97424.47;5086447;28;20065;-74
2021/04/27 07:06:47;;;;;;;21.65;14.75;;;;;;;6.53;100.00;97412.47;5085068;28;20028;-74
2021/04/27 07:09:12;;;;;;;21.38;15.40;;;;;;;6.43;100.00;97423.41;5086590;28;20035;-75
2021/04/27 07:11:38;;;;;;;23.35;16.08;;;;;;;6.54;100.00;97426.88;5076682;28;20020;-75
2021/04/27 07:14:03;;;;;;;21.92;16.52;;;;;;;6.56;100.00;97419.25;5071723;28;20036;-75
2021/04/27 07:16:29;;;;;;;16.63;13.77;;;;;;;6.39;100.00;97428.59;5072475;28;20067;-76
2021/04/27 07:18:57;;;;;;;15.13;12.18;;;;;;;6.42;100.00;97433.47;5073312;28;20442;-75
2021/04/27 07:21:28;;;;;;;24.17;15.35;;;;;;;6.48;100.00;97429.63;5073150;28;20039;-74
2021/04/27 07:23:53;;;;;;;22.20;16.05;;;;;;;6.45;100.00;97437.53;5073006;28;20117;-75
2021/04/27 07:26:19;;;;;;;19.13;13.85;;;;;;;6.48;100.00;97436.97;5073020;28;20471;-75
2021/04/27 07:28:47;;;;;;;19.63;14.13;;;;;;;6.55;100.00;97436.66;5071478;28;20040;-75
2021/04/27 07:31:12;;;;;;;20.08;14.68;;;;;;;6.56;100.00;97444.53;5073499;28;20194;-74
2021/04/27 07:33:38;;;;;;;19.58;15.10;;;;;;;6.69;100.00;97441.19;5072436;28;20543;-77
2021/04/27 07:36:04;;;;;;;22.15;15.60;;;;;;;6.78;100.00;97444.91;5072194;28;20017;-76
2021/04/27 07:38:29;;;;;;;18.67;13.48;;;;;;;6.80;100.00;97442.72;5070003;28;20037;-75
2021/04/27 07:40:55;;;;;;;20.95;13.88;;;;;;;6.99;100.00;97450.97;5071507;28;20025;-74
2021/04/27 07:43:21;;;;;;;29.30;14.18;;;;;;;6.93;99.90;97449.41;5063769;28;20417;-76
2021/04/27 07:45:46;;;;;;;17.15;13.13;;;;;;;6.79;99.67;97432.94;5071065;28;20024;-75
2021/04/27 07:48:12;;;;;;;18.65;13.52;;;;;;;6.76;99.35;97443.56;5068481;28;20024;-76
2021/04/27 07:50:38;;;;;;;19.38;15.23;;;;;;;6.78;100.00;97447.63;5069907;28;20111;-80
2021/04/27 07:53:04;;;;;;;14.68;12.73;;;;;;;6.69;100.00;97440.34;5068361;28;20033;-75
2021/04/27 07:55:30;;;;;;;20.55;15.30;;;;;;;6.58;100.00;97442.31;5067423;28;20107;-77
2021/04/27 07:57:55;;;;;;;21.00;13.57;;;;;;;6.55;100.00;97447.53;5070080;28;20120;-75
2021/04/27 08:00:22;;;;;;;33.90;22.55;;;;;;;6.58;100.00;97446.97;5070158;28;20044;-75
2021/04/27 08:02:50;;;;;;;44.45;30.27;;;;;;;6.73;100.00;97444.97;5071033;28;20032;-75
2021/04/27 08:05:15;;;;;;;19.92;13.80;;;;;;;6.67;100.00;97443.34;5071718;28;20028;-76
2021/04/27 08:07:41;;;;;;;16.83;13.35;;;;;;;6.79;100.00;97449.25;5070484;28;20032;-74
2021/04/27 08:10:09;;;;;;;16.58;12.50;;;;;;;6.80;98.86;97444.59;5066782;28;20023;-75
2021/04/27 08:12:35;;;;;;;16.40;11.90;;;;;;;6.76;97.99;97457.97;5067831;28;20024;-76
2021/04/27 08:15:00;;;;;;;17.10;12.10;;;;;;;6.74;98.33;97462.06;5069043;28;20465;-77
2021/04/27 08:17:26;;;;;;;14.63;11.35;;;;;;;6.83;99.17;97463.06;5070715;28;20024;-77
2021/04/27 08:19:52;;;;;;;13.85;11.57;;;;;;;6.84;98.50;97457.38;5063711;28;20051;-75
2021/04/27 08:22:18;;;;;;;14.70;11.43;;;;;;;6.83;97.85;97460.34;5068744;28;20088;-75
2021/04/27 08:24:45;;;;;;;19.17;13.45;;;;;;;6.89;98.29;97470.13;5070708;28;20029;-75
2021/04/27 08:27:13;;;;;;;17.00;12.27;;;;;;;6.99;98.58;97461.84;5070250;28;21864;-75
2021/04/27 08:29:38;;;;;;;11.95;10.18;;;;;;;6.86;96.42;97454.38;5070141;28;20035;-75
2021/04/27 08:32:07;;;;;;;13.75;10.93;;;;;;;6.89;97.31;97460.03;5069900;28;20012;-75
2021/04/27 08:34:34;;;;;;;13.48;9.95;;;;;;;6.87;97.43;97451.34;5070567;28;20033;-76
2021/04/27 08:36:59;;;;;;;17.55;11.85;;;;;;;7.05;98.10;97463.44;5063405;28;20020;-73
2021/04/27 08:39:25;;;;;;;15.15;11.55;;;;;;;7.16;97.66;97469.63;5069287;28;20602;-75
2021/04/27 08:41:51;;;;;;;13.70;10.07;;;;;;;7.25;97.01;97466.00;5069059;28;20051;-75
2021/04/27 08:44:17;;;;;;;13.73;9.23;;;;;;;7.18;95.38;97472.84;5062828;28;20012;-76
2021/04/27 08:46:54;;;;;;;13.48;10.43;;;;;;;7.16;95.96;97454.13;5067489;28;20788;-75
2021/04/27 08:49:19;;;;;;;13.20;9.63;;;;;;;7.20;96.69;97466.06;5066456;28;20086;-77
2021/04/27 08:51:45;;;;;;;18.25;11.57;;;;;;;7.16;97.89;97464.19;5069662;28;20033;-76
2021/04/27 08:54:11;;;;;;;17.65;12.18;;;;;;;7.27;98.32;97465.69;5070807;28;20031;-75
2021/04/27 08:56:55;;;;;;;19.70;12.93;;;;;;;7.18;98.17;97462.78;5086805;28;20020;-74
2021/04/27 08:59:30;;;;;;;17.52;12.73;;;;;;;7.15;98.66;97457.09;5072609;28;20412;-77
2021/04/27 09:01:56;;;;;;;14.38;11.60;;;;;;;7.19;98.21;97474.47;5071009;28;20032;-79
2021/04/27 09:04:40;;;;;;;16.35;10.60;;;;;;;7.17;97.47;97466.63;5074863;28;20063;-80
2021/04/27 09:07:14;;;;;;;14.75;11.15;;;;;;;7.18;98.20;97468.22;5070656;28;20033;-74
2021/04/27 09:09:45;;;;;;;15.93;12.40;;;;;;;7.18;98.29;97465.50;5062386;28;20017;-75
2021/04/27 09:12:19;;;;;;;14.68;11.25;;;;;;;7.20;97.06;97482.38;5066386;28;20385;-75
2021/04/27 09:14:44;;;;;;;13.07;10.90;;;;;;;7.26;97.53;97470.34;5057687;28;20055;-74
2021/04/27 09:17:12;;;;;;;15.45;10.57;;;;;;;7.37;95.88;97474.59;5063412;28;20436;-73
2021/04/27 09:19:42;;;;;;;12.63;10.38;;;;;;;7.34;96.75;97477.88;5069332;28;20523;-74
2021/04/27 09:22:13;;;;;;;11.32;9.82;;;;;;;7.32;95.94;97479.25;5068816;28;20085;-74
2021/04/27 09:24:42;;;;;;;11.35;9.70;;;;;;;7.16;96.79;97472.34;5069926;28;20017;-76
2021/04/27 09:27:08;;;;;;;13.25;9.95;;;;;;;7.20;97.69;97484.28;5067260;28;20036;-74
2021/04/27 09:29:39;;;;;;;13.25;9.75;;;;;;;7.35;97.66;97471.34;5069206;28;20028;-74
2021/04/27 09:32:06;;;;;;;12.75;8.90;;;;;;;7.29;97.22;97482.56;5067379;28;20337;-75
2021/04/27 09:34:37;;;;;;;11.73;9.82;;;;;;;7.24;97.64;97477.97;5067631;28;20032;-76
2021/04/27 09:37:09;;;;;;;10.18;8.82;;;;;;;7.19;96.45;97479.91;5083028;28;20024;-76
2021/04/27 09:39:43;;;;;;;12.30;9.48;;;;;;;7.24;97.68;97482.59;5060226;28;20539;-76
2021/04/27 09:42:13;;;;;;;9.90;8.18;;;;;;;7.25;96.79;97478.78;5067695;28;20536;-81
2021/04/27 09:44:40;;;;;;;12.10;8.45;;;;;;;7.37;97.25;97481.94;5067239;28;20059;-75
2021/04/27 09:47:30;;;;;;;7.30;6.47;;;;;;;7.31;96.13;97483.88;5067799;28;20167;-76
2021/04/27 09:50:02;;;;;;;6.57;5.90;;;;;;;7.34;96.53;97477.88;5050588;28;20040;-76
2021/04/27 09:52:31;;;;;;;10.02;7.00;;;;;;;7.43;97.23;97489.75;5067846;28;20009;-74
2021/04/27 09:55:04;;;;;;;6.22;5.63;;;;;;;7.49;97.40;97480.44;5068151;28;20032;-75
2021/04/27 09:57:34;;;;;;;8.10;7.10;;;;;;;7.52;96.63;97474.44;5069853;28;20027;-76
2021/04/27 10:00:33;;;;;;;6.32;5.38;;;;;;;7.28;95.30;97479.03;5069939;28;20066;-76
2021/04/27 10:03:03;;;;;;;6.95;5.10;;;;;;;7.29;96.39;97477.94;5066375;28;20456;-75
2021/04/27 10:05:29;;;;;;;6.18;5.25;;;;;;;7.35;96.17;97478.69;5068018;28;20036;-75
2021/04/27 10:07:57;;;;;;;7.35;5.90;;;;;;;7.44;97.35;97480.50;5066964;28;20384;-76
2021/04/27 10:10:23;;;;;;;7.68;6.40;;;;;;;7.31;96.01;97474.91;5068636;28;20412;-75
2021/04/27 10:12:49;;;;;;;6.43;5.35;;;;;;;7.27;95.89;97473.84;5066329;28;20021;-75
2021/04/27 10:15:15;;;;;;;6.13;4.68;;;;;;;7.44;96.96;97480.50;5067341;28;20114;-75
2021/04/27 10:17:41;;;;;;;5.65;4.82;;;;;;;7.33;95.36;97476.25;5065822;28;20098;-75
2021/04/27 10:20:12;;;;;;;5.65;5.07;;;;;;;7.21;95.28;97475.00;5067873;28;20589;-77
2021/04/27 10:22:48;;;;;;;8.23;5.35;;;;;;;7.18;96.32;97473.66;5081506;28;20078;-77
2021/04/27 10:25:27;;;;;;;6.30;5.47;;;;;;;7.15;96.02;97465.25;5067268;28;20119;-75
2021/04/27 10:27:58;;;;;;;8.38;5.70;;;;;;;7.25;96.00;97474.16;5067917;28;20504;-76
2021/04/27 10:30:23;;;;;;;7.85;6.03;;;;;;;7.16;95.92;97470.44;5066285;28;20020;-76
2021/04/27 10:33:19;;;;;;;5.82;5.13;;;;;;;7.23;96.10;97476.34;5067153;28;20032;-76
2021/04/27 10:36:01;;;;;;;4.83;4.43;;;;;;;7.13;95.10;97476.44;5046509;28;20040;-75
2021/04/27 10:38:45;;;;;;;5.70;5.07;;;;;;;7.15;95.32;97468.78;5064624;28;20100;-75
2021/04/27 10:41:15;;;;;;;8.82;6.28;;;;;;;7.23;96.59;97467.38;5064265;28;20037;-75
2021/04/27 10:43:42;;;;;;;6.55;5.93;;;;;;;7.20;96.36;97474.22;5065226;28;20048;-76
2021/04/27 10:46:33;;;;;;;12.07;5.75;;;;;;;7.30;96.28;97467.88;5065433;28;20086;-75
2021/04/27 10:49:20;;;;;;;7.07;5.95;;;;;;;7.33;95.77;97476.25;5057736;28;20109;-74
2021/04/27 10:51:47;;;;;;;6.10;5.50;;;;;;;7.21;95.69;97466.84;5065515;28;20055;-77
2021/04/27 10:54:15;;;;;;;7.13;5.35;;;;;;;7.30;95.53;97478.75;5069380;28;20024;-75
2021/04/27 10:57:00;;;;;;;6.03;4.88;;;;;;;7.31;94.53;97481.16;5068817;28;20024;-75
2021/04/27 10:59:30;;;;;;;5.65;4.95;;;;;;;7.27;96.01;97471.13;5067741;28;20647;-75
2021/04/27 11:02:17;;;;;;;6.13;5.20;;;;;;;7.40;95.60;97479.44;5068281;28;20029;-75
2021/04/27 11:04:45;;;;;;;6.40;5.05;;;;;;;7.40;95.73;97475.91;5073562;28;20036;-75
2021/04/27 11:07:16;;;;;;;6.07;5.18;;;;;;;7.29;95.06;97477.94;5074016;28;20037;-74
2021/04/27 11:10:00;;;;;;;5.10;4.50;;;;;;;7.20;95.71;97476.94;5074442;28;20055;-74
2021/04/27 11:12:29;;;;;;;6.05;5.45;;;;;;;7.31;96.69;97475.72;5070371;28;20052;-77
2021/04/27 11:15:00;;;;;;;8.50;5.15;;;;;;;7.21;96.16;97472.28;5072616;28;20024;-75
2021/04/27 11:17:29;;;;;;;7.05;5.55;;;;;;;7.22;97.18;97479.34;5075161;28;20476;-76
2021/04/27 11:19:55;;;;;;;7.13;6.18;;;;;;;7.24;97.23;97477.16;5071487;28;20032;-75
2021/04/27 11:22:23;;;;;;;6.28;5.68;;;;;;;7.20;96.62;97474.22;5078313;28;20153;-76
2021/04/27 11:24:51;;;;;;;8.48;5.40;;;;;;;7.26;97.55;97475.78;5075219;28;20495;-82
2021/04/27 11:27:23;;;;;;;6.40;5.80;;;;;;;7.23;97.24;97476.34;5068980;28;20020;-74
2021/04/27 11:29:53;;;;;;;7.50;5.57;;;;;;;7.41;97.63;97477.53;5071849;28;20122;-76
2021/04/27 11:32:18;;;;;;;5.70;5.00;;;;;;;7.32;96.43;97471.09;5068031;28;20112;-77
2021/04/27 11:34:50;;;;;;;5.97;4.85;;;;;;;7.33;96.85;97472.75;5064551;28;20139;-75
2021/04/27 11:37:18;;;;;;;5.65;5.05;;;;;;;7.35;96.20;97475.97;5071206;28;20021;-74
2021/04/27 11:39:43;;;;;;;6.63;5.10;;;;;;;7.25;96.68;97474.16;5072351;28;20063;-74
2021/04/27 11:42:09;;;;;;;8.07;5.57;;;;;;;7.25;96.53;97474.16;5088330;28;20056;-75
2021/04/27 11:44:38;;;;;;;6.20;4.72;;;;;;;7.17;95.68;97466.63;5072199;28;20110;-75
2021/04/27 11:47:15;;;;;;;5.35;4.82;;;;;;;7.24;95.82;97467.09;5072382;28;20024;-73
2021/04/27 11:49:46;;;;;;;;;;;;;;;7.34;96.56;97475.16;5088220;28;20120;-74
2021/04/27 11:52:12;;;;;;;7.03;5.03;;;;;;;7.32;95.59;97479.25;5073133;28;20369;-75
2021/04/27 11:54:38;;;;;;;6.32;4.95;;;;;;;7.33;95.11;97470.00;5071735;28;20032;-75
2021/04/27 11:57:13;;;;;;;5.13;4.47;;;;;;;7.30;95.09;97470.59;5059120;28;20033;-74
2021/04/27 11:59:38;;;;;;;5.57;4.75;;;;;;;7.29;95.35;97464.34;5056982;28;20147;-77
2021/04/27 12:02:04;;;;;;;5.85;4.82;;;;;;;7.37;94.24;97462.88;5069952;28;20123;-76
2021/04/27 12:04:31;;;;;;;5.35;4.13;;;;;;;7.39;93.58;97453.34;5070179;28;20025;-74
2021/04/27 12:07:03;;;;;;;5.65;5.10;;;;;;;7.41;93.87;97462.03;5068740;28;20036;-75
2021/04/27 12:09:43;;;;;;;5.28;4.30;;;;;;;7.40;94.29;97426.94;5069877;28;20020;-76
2021/04/27 12:12:12;;;;;;;4.40;4.00;;;;;;;7.64;93.21;97459.63;5069529;28;20032;-76
2021/04/27 12:14:48;;;;;;;5.40;4.30;;;;;;;7.59;91.76;97457.75;5069877;28;20384;-74
2021/04/27 12:17:26;;;;;;;4.95;4.10;;;;;;;7.61;92.19;97455.59;5068768;28;20739;-75
2021/04/27 12:20:16;;;;;;;7.80;4.00;;;;;;;7.66;91.81;97454.69;5067926;28;20074;-73
2021/04/27 12:22:50;;;;;;;4.85;3.90;;;;;;;7.55;91.80;97446.63;5083752;28;20036;-76
2021/04/27 12:25:27;;;;;;;3.83;3.17;;;;;;;7.55;90.66;97451.25;5069253;28;20021;-75
2021/04/27 12:28:04;;;;;;;5.53;4.18;;;;;;;7.60;91.71;97447.69;5084631;28;20041;-74
2021/04/27 12:30:33;;;;;;;5.38;4.38;;;;;;;7.67;91.58;97440.00;5069096;28;20017;-75
2021/04/27 12:33:01;;;;;;;5.03;3.83;;;;;;;7.68;91.32;97450.59;5070550;28;20070;-75
2021/04/27 12:35:29;;;;;;;4.03;3.63;;;;;;;7.66;90.87;97444.63;5068751;28;20012;-75
2021/04/27 12:38:17;;;;;;;4.40;3.85;;;;;;;7.71;90.91;97449.19;5070030;28;20032;-75
2021/04/27 12:40:53;;;;;;;7.85;4.38;;;;;;;7.75;91.41;97444.81;5069649;28;20028;-75
2021/04/27 12:43:32;;;;;;;4.60;3.95;;;;;;;7.84;90.84;97445.78;5069599;28;21478;-75
2021/04/27 12:46:01;;;;;;;6.15;3.40;;;;;;;7.78;89.70;97450.47;5070083;28;20032;-74
2021/04/27 12:48:31;;;;;;;3.53;3.13;;;;;;;7.86;90.47;97446.31;5069473;28;20012;-75
2021/04/27 12:51:01;;;;;;;7.38;4.80;;;;;;;7.82;90.13;97439.81;5069788;28;20051;-75
2021/04/27 12:53:44;;;;;;;6.57;4.57;;;;;;;7.88;90.18;97439.47;5069230;28;20012;-74
2021/04/27 12:56:18;;;;;;;3.50;3.17;;;;;;;7.97;89.77;97436.91;5066683;28;20032;-75
2021/04/27 12:58:46;;;;;;;4.72;3.00;;;;;;;7.91;88.21;97438.06;5069400;28;20066;-77
2021/04/27 13:01:23;;;;;;;3.78;3.35;;;;;;;7.81;89.04;97444.44;5066477;28;20020;-74
2021/04/27 13:03:57;;;;;;;3.72;3.15;;;;;;;7.79;89.47;97430.34;5067830;28;20476;-73
2021/04/27 13:06:31;;;;;;;4.28;3.78;;;;;;;7.84;90.26;97437.59;5068196;28;20077;-75
2021/04/27 13:09:06;;;;;;;5.20;4.30;;;;;;;7.82;89.86;97440.63;5067236;28;20068;-76
2021/04/27 13:11:32;;;;;;;5.10;3.47;;;;;;;7.76;90.68;97435.53;5066390;28;20107;-75
2021/04/27 13:14:16;;;;;;;5.32;4.80;;;;;;;7.80;91.16;97442.03;5067597;28;20017;-75
2021/04/27 13:16:41;;;;;;;5.10;4.18;;;;;;;7.92;91.10;97439.72;5067853;28;20032;-75
2021/04/27 13:19:07;;;;;;;5.47;3.67;;;;;;;7.82;90.91;97435.19;5069061;28;20082;-75
2021/04/27 13:21:32;;;;;;;4.93;3.78;;;;;;;7.79;91.31;97430.34;5069928;28;20043;-75
2021/04/27 13:24:09;;;;;;;5.22;3.75;;;;;;;7.88;90.29;97447.66;5068789;28;20021;-76
2021/04/27 13:26:35;;;;;;;14.02;5.88;;;;;;;8.32;92.04;97428.31;5064414;28;20035;-75
2021/04/27 13:29:00;;;;;;;8.93;5.25;;;;;;;8.14;89.28;97439.16;5070075;28;20042;-75
2021/04/27 13:31:26;;;;;;;5.30;4.53;;;;;;;8.07;89.04;97428.63;5068037;28;20523;-76
2021/04/27 13:33:51;;;;;;;4.50;3.85;;;;;;;7.90;88.63;97431.00;5069498;28;20449;-76
2021/04/27 13:36:19;;;;;;;8.02;3.67;;;;;;;7.83;87.72;97431.34;5068377;28;20373;-74
2021/04/27 13:38:47;;;;;;;4.85;3.75;;;;;;;7.92;88.48;97421.47;5066752;28;20080;-75
2021/04/27 13:41:13;;;;;;;4.50;4.00;;;;;;;7.97;88.45;97423.28;5081443;28;20052;-78
2021/04/27 13:43:41;;;;;;;4.88;4.03;;;;;;;7.97;88.98;97417.84;5073677;28;20078;-76
2021/04/27 13:46:09;;;;;;;5.18;4.68;;;;;;;7.96;88.84;97424.38;5069419;28;20024;-75
2021/04/27 13:48:35;;;;;;;7.40;4.13;;;;;;;7.86;89.40;97424.53;5067690;28;20133;-76
2021/04/27 13:51:10;;;;;;;5.95;4.60;;;;;;;7.81;88.25;97421.84;5053824;28;20029;-79
2021/04/27 13:53:36;;;;;;;4.13;3.60;;;;;;;7.79;89.83;97419.44;5064972;28;20029;-76
2021/04/27 13:56:04;;;;;;;4.70;4.13;;;;;;;7.83;89.61;97425.13;5065557;28;20118;-75
2021/04/27 13:58:32;;;;;;;5.70;3.88;;;;;;;7.90;89.18;97420.94;5065135;28;20046;-74
2021/04/27 14:00:58;;;;;;;5.82;4.15;;;;;;;7.87;88.67;97418.78;5062899;28;20461;-75
2021/04/27 14:03:25;;;;;;;5.07;3.65;;;;;;;7.86;88.70;97419.09;5065819;28;20083;-74
2021/04/27 14:05:51;;;;;;;5.05;3.65;;;;;;;7.89;89.26;97432.91;5068164;28;20020;-75
2021/04/27 14:08:17;;;;;;;4.65;4.07;;;;;;;7.96;89.68;97421.66;5065504;28;20020;-74
2021/04/27 14:10:43;;;;;;;4.85;4.28;;;;;;;7.85;88.34;97429.16;5069401;28;20031;-75
2021/04/27 14:13:09;;;;;;;4.30;3.50;;;;;;;7.91;88.72;97419.03;5067762;28;20031;-73
2021/04/27 14:15:37;;;;;;;4.95;4.22;;;;;;;7.90;88.84;97420.09;5067769;28;20028;-75
2021/04/27 14:18:06;;;;;;;5.22;3.88;;;;;;;7.94;88.81;97418.44;5067539;28;20040;-74
2021/04/27 14:20:33;;;;;;;5.10;3.95;;;;;;;7.89;87.89;97413.06;5069344;28;20025;-75
2021/04/27 14:23:02;;;;;;;5.43;4.43;;;;;;;7.89;87.76;97418.50;5072892;28;20021;-75
2021/04/27 14:25:27;;;;;;;4.78;4.25;;;;;;;7.87;87.07;97416.06;5073297;28;20028;-74
2021/04/27 14:27:53;;;;;;;6.10;4.68;;;;;;;7.90;86.85;97418.19;5072703;28;20028;-74
2021/04/27 14:30:19;;;;;;;5.60;4.80;;;;;;;7.93;87.10;97419.53;5073536;28;20028;-75
2021/04/27 14:32:50;;;;;;;5.45;4.35;;;;;;;7.95;87.30;97422.78;5071555;28;20043;-75
2021/04/27 14:35:18;;;;;;;10.27;5.10;;;;;;;7.96;86.92;97416.22;5072807;28;20021;-74
2021/04/27 14:37:47;;;;;;;6.57;5.28;;;;;;;7.91;86.18;97419.84;5072351;28;20074;-73
2021/04/27 14:40:16;;;;;;;7.05;4.72;;;;;;;7.91;86.08;97416.28;5071851;28;20029;-76
2021/04/27 14:42:42;;;;;;;13.57;8.32;;;;;;;7.85;85.57;97417.47;5072088;28;21081;-75
2021/04/27 14:45:10;;;;;;;6.80;4.55;;;;;;;7.85;86.93;97422.91;5073046;28;20052;-74
2021/04/27 14:47:36;;;;;;;10.13;5.63;;;;;;;7.94;87.14;97418.44;5072721;28;20029;-76
2021/04/27 14:50:02;;;;;;;8.40;5.45;;;;;;;7.88;86.34;97414.97;5073174;28;20036;-75
2021/04/27 14:52:28;;;;;;;6.55;5.20;;;;;;;7.88;87.05;97414.16;5070774;28;20116;-74
2021/04/27 14:54:53;;;;;;;12.90;6.38;;;;;;;7.87;87.09;97412.53;5069654;28;20115;-77
2021/04/27 14:57:19;;;;;;;6.85;5.50;;;;;;;7.84;87.45;97408.47;5078906;28;20032;-75
2021/04/27 14:59:44;;;;;;;7.68;5.95;;;;;;;7.90;87.00;97415.47;5070852;28;20048;-73
2021/04/27 15:02:10;;;;;;;6.85;5.50;;;;;;;7.87;87.07;97404.34;5070851;28;20476;-77
2021/04/27 15:04:36;;;;;;;7.75;6.45;;;;;;;8.00;87.95;97409.91;5071105;28;20016;-74
2021/04/27 15:07:01;;;;;;;7.47;5.90;;;;;;;7.97;86.59;97405.06;5071684;28;20477;-77
2021/04/27 15:09:27;;;;;;;9.00;6.35;;;;;;;7.92;86.48;97404.31;5088118;28;20051;-74
2021/04/27 15:11:52;;;;;;;8.00;5.90;;;;;;;7.90;86.12;97398.31;5088372;28;20362;-75
2021/04/27 15:14:18;;;;;;;8.63;6.80;;;;;;;7.93;86.45;97393.13;5072724;28;20052;-74
2021/04/27 15:16:44;;;;;;;9.68;6.15;;;;;;;7.93;86.43;97393.13;5072601;28;20017;-75
2021/04/27 15:19:11;;;;;;;10.43;5.70;;;;;;;7.92;86.60;97388.78;5073506;28;20039;-75
2021/04/27 15:21:37;;;;;;;6.80;5.82;;;;;;;7.93;86.77;97389.56;5073131;28;20067;-74
2021/04/27 15:24:05;;;;;;;11.35;7.78;;;;;;;7.96;87.07;97391.72;5073570;28;20027;-74
2021/04/27 15:26:32;;;;;;;10.45;7.95;;;;;;;7.95;87.41;97395.56;5082514;28;20367;-75
2021/04/27 15:28:57;;;;;;;9.18;7.38;;;;;;;7.88;86.34;97397.81;5053398;28;20091;-76
2021/04/27 15:31:23;;;;;;;13.35;7.90;;;;;;;7.88;85.93;97395.09;5065772;28;20036;-74
2021/04/27 15:33:49;;;;;;;10.77;7.50;;;;;;;7.77;86.55;97385.44;5072325;28;20056;-75
2021/04/27 15:36:14;;;;;;;9.55;7.07;;;;;;;7.78;86.37;97387.88;5088104;28;20528;-75
2021/04/27 15:38:40;;;;;;;9.25;7.65;;;;;;;7.80;86.34;97388.38;5071298;28;20016;-77
2021/04/27 15:41:08;;;;;;;11.05;8.77;;;;;;;7.84;86.11;97394.06;5072059;28;20055;-75
2021/04/27 15:43:34;;;;;;;12.27;9.00;;;;;;;7.82;86.09;97385.38;5070495;28;20035;-76
2021/04/27 15:46:00;;;;;;;11.98;8.50;;;;;;;7.77;86.50;97385.44;5070341;28;20064;-75
2021/04/27 15:48:25;;;;;;;11.10;8.68;;;;;;;7.91;86.00;97394.50;5071674;28;20555;-75
2021/04/27 15:50:51;;;;;;;12.05;9.88;;;;;;;7.84;86.71;97391.31;5072828;28;20024;-75
2021/04/27 15:53:16;;;;;;;12.45;9.45;;;;;;;7.71;86.56;97383.88;5072195;28;20067;-74
2021/04/27 15:55:42;;;;;;;11.18;8.48;;;;;;;7.80;86.42;97388.38;5073830;28;20111;-74
2021/04/27 15:58:08;;;;;;;32.08;18.27;;;;;;;7.79;86.43;97385.97;5073821;28;20084;-75
2021/04/27 16:00:33;;;;;;;21.08;14.10;;;;;;;7.78;86.79;97376.16;5075860;28;20053;-77
2021/04/27 16:02:59;;;;;;;10.82;8.95;;;;;;;7.79;86.94;97377.78;5078061;28;20040;-75
2021/04/27 16:05:26;;;;;;;12.55;10.20;;;;;;;7.79;86.61;97375.06;5073694;28;20048;-75
2021/04/27 16:07:52;;;;;;;14.07;10.43;;;;;;;7.78;87.48;97376.16;5070166;28;20027;-75
2021/04/27 16:10:19;;;;;;;12.35;9.23;;;;;;;7.75;87.81;97379.47;5069272;28;20036;-76
2021/04/27 16:12:48;;;;;;;14.13;9.90;;;;;;;7.73;87.95;97373.50;5069345;28;20388;-76
2021/04/27 16:15:15;;;;;;;15.02;10.88;;;;;;;7.69;87.82;97372.47;5070541;28;20029;-75
2021/04/27 16:17:42;;;;;;;12.88;9.85;;;;;;;7.62;87.72;97361.13;5070764;28;20082;-76
2021/04/27 16:20:10;;;;;;;12.50;9.88;;;;;;;7.66;87.40;97370.34;5071251;28;20068;-76
2021/04/27 16:22:35;;;;;;;17.05;9.73;;;;;;;7.74;87.44;97372.41;5071250;28;20508;-76
2021/04/27 16:25:01;;;;;;;15.35;10.75;;;;;;;7.64;88.04;97367.09;5069873;28;20020;-76
2021/04/27 16:27:27;;;;;;;12.73;10.13;;;;;;;7.70;87.81;97365.94;5084865;28;20020;-75
2021/04/27 16:29:56;;;;;;;14.90;9.82;;;;;;;7.70;87.94;97368.66;5068750;28;20025;-74
2021/04/27 16:32:22;;;;;;;14.32;10.77;;;;;;;7.68;87.69;97365.41;5068949;28;20013;-77
2021/04/27 16:34:49;;;;;;;15.43;11.02;;;;;;;7.64;87.37;97359.75;5069860;28;20017;-80
2021/04/27 16:37:17;;;;;;;14.48;11.20;;;;;;;7.63;87.82;97366.28;5070513;28;20454;-75
2021/04/27 16:39:42;;;;;;;15.63;11.23;;;;;;;7.54;87.61;97357.97;5069994;28;20032;-75
2021/04/27 16:42:08;;;;;;;15.43;10.95;;;;;;;7.65;87.53;97363.25;5071751;28;20101;-75
2021/04/27 16:44:33;;;;;;;16.00;12.05;;;;;;;7.62;88.12;97363.84;5069927;28;20477;-74
2021/04/27 16:46:59;;;;;;;14.90;10.30;;;;;;;7.62;88.02;97353.78;5060460;28;20111;-75
2021/04/27 16:49:24;;;;;;;19.02;11.65;;;;;;;7.60;87.78;97357.88;5067937;28;20530;-75
2021/04/27 16:51:50;;;;;;;18.15;12.05;;;;;;;7.64;87.99;97361.66;5069290;28;20070;-74
2021/04/27 16:54:15;;;;;;;17.08;11.32;;;;;;;7.58;88.22;97352.72;5084635;28;20024;-76
2021/04/27 16:56:41;;;;;;;15.00;10.80;;;;;;;7.63;88.06;97360.84;5067928;28;20135;-77
2021/04/27 16:59:06;;;;;;;14.10;9.93;;;;;;;7.68;88.06;97358.03;5068670;28;20104;-74
2021/04/27 17:01:35;;;;;;;12.23;9.30;;;;;;;7.67;88.02;97358.34;5063097;28;20028;-74
2021/04/27 17:04:00;;;;;;;15.73;11.55;;;;;;;7.69;88.13;97365.13;5069093;28;20029;-74
2021/04/27 17:06:26;;;;;;;15.18;10.52;;;;;;;7.52;88.32;97351.97;5065103;28;20062;-74
2021/04/27 17:08:52;;;;;;;16.73;10.88;;;;;;;7.49;88.76;97374.31;5068246;28;20016;-77
2021/04/27 17:11:19;;;;;;;19.33;13.18;;;;;;;7.41;89.50;97363.28;5067696;28;20443;-78
2021/04/27 17:13:44;;;;;;;14.98;10.57;;;;;;;7.53;88.88;97360.97;5067078;28;20020;-77
2021/04/27 17:16:10;;;;;;;16.55;11.02;;;;;;;7.50;89.24;97362.34;5068014;28;20024;-75
2021/04/27 17:18:35;;;;;;;15.85;11.80;;;;;;;7.47;89.24;97373.00;5067321;28;20028;-75
2021/04/27 17:21:01;;;;;;;17.33;12.13;;;;;;;7.46;89.33;97376.81;5067410;28;20059;-75
2021/04/27 17:23:26;;;;;;;18.08;11.05;;;;;;;7.40;89.73;97365.19;5068209;28;20090;-75
2021/04/27 17:25:53;;;;;;;15.48;11.15;;;;;;;7.47;89.39;97373.81;5066606;28;20705;-76
2021/04/27 17:28:22;;;;;;;13.65;9.93;;;;;;;7.53;89.12;97377.28;5066850;28;20127;-75
2021/04/27 17:30:48;;;;;;;16.25;12.25;;;;;;;7.55;89.53;97380.50;5060941;28;20151;-75
2021/04/27 17:33:14;;;;;;;16.83;9.98;;;;;;;7.49;89.62;97366.16;5062191;28;20028;-77
2021/04/27 17:35:40;;;;;;;16.13;11.50;;;;;;;7.47;90.12;97381.97;5059246;28;20082;-75
2021/04/27 17:38:10;;;;;;;17.30;11.57;;;;;;;7.52;89.99;97379.19;5066325;28;20020;-75
2021/04/27 17:40:39;;;;;;;14.20;11.15;;;;;;;7.49;89.86;97382.50;5066640;28;20028;-75